sensor_id;sensor_type;location;lat;lon;timestamp;pressure;altitude;pressure_sealevel;temperature;humidity
5879;BME280;2965;42.640;23.370;2023-02-19T05:01:31;94890.59;;;4.59;100.00
5879;BME280;2965;42.640;23.370;2023-02-19T05:03:58;94887.03;;;4.60;100.00
5879;BME280;2965;42.640;23.370;2023-02-19T05:06:23;94887.47;;;4.65;100.00
5879;BME280;2965;42.640;23.370;2023-02-19T05:08:48;94890.59;;;4.78;100.00
5879;BME280;2965;42.640;23.370;2023-02-19T05:11:14;94878.31;;;4.71;100.00
5879;BME280;2965;42.640;23.370;2023-02-19T05:13:39;94884.31;;;4.71;100.00
5879;BME280;2965;42.640;23.370;2023-02-19T05:16:08;94879.06;;;4.91;100.00
5879;BME280;2965;42.640;23.370;2023-02-19T05:18:34;94878.81;;;4.94;100.00
5879;BME280;2965;42.640;23.370;2023-02-19T05:21:00;94898.38;;;4.40;100.00
5879;BME280;2965;42.640;23.370;2023-02-19T05:23:26;94894.00;;;4.50;100.00
5879;BME280;2965;42.640;23.370;2023-02-19T05:25:52;94885.00;;;4.54;100.00
5879;BME280;2965;42.640;23.370;2023-02-19T05:28:18;94888.66;;;4.80;100.00
5879;BME280;2965;42.640;23.370;2023-02-19T05:30:50;94891.66;;;4.86;100.00
5879;BME280;2965;42.640;23.370;2023-02-19T05:33:18;94901.44;;;5.01;100.00
5879;BME280;2965;42.640;23.370;2023-02-19T05:35:50;94897.53;;;5.35;100.00
5879;BME280;2965;42.640;23.370;2023-02-19T05:38:16;94904.28;;;5.55;100.00
5879;BME280;2965;42.640;23.370;2023-02-19T05:40:43;94908.97;;;5.42;100.00
5879;BME280;2965;42.640;23.370;2023-02-19T05:43:09;94915.53;;;4.60;100.00
5879;BME280;2965;42.640;23.370;2023-02-19T05:45:35;94914.84;;;4.77;100.00
5879;BME280;2965;42.640;23.370;2023-02-19T05:48:01;94910.03;;;5.02;100.00
5879;BME280;2965;42.640;23.370;2023-02-19T05:50:27;94907.69;;;5.18;100.00
5879;BME280;2965;42.640;23.370;2023-02-19T05:52:52;94907.69;;;5.09;100.00
5879;BME280;2965;42.640;23.370;2023-02-19T05:55:18;94915.28;;;5.29;100.00
5879;BME280;2965;42.640;23.370;2023-02-19T05:57:45;94909.75;;;5.52;100.00
5879;BME280;2965;42.640;23.370;2023-02-19T06:00:13;94915.16;;;5.68;100.00
5879;BME280;2965;42.640;23.370;2023-02-19T06:02:40;94916.38;;;6.01;100.00
5879;BME280;2965;42.640;23.370;2023-02-19T06:05:05;94922.50;;;6.28;100.00
5879;BME280;2965;42.640;23.370;2023-02-19T06:07:31;94914.22;;;6.42;100.00
5879;BME280;2965;42.640;23.370;2023-02-19T06:09:57;94929.56;;;6.36;100.00
5879;BME280;2965;42.640;23.370;2023-02-19T06:12:22;94930.31;;;6.46;100.00
5879;BME280;2965;42.640;23.370;2023-02-19T06:14:48;94925.56;;;6.41;100.00
5879;BME280;2965;42.640;23.370;2023-02-19T06:17:14;94937.28;;;6.63;100.00
5879;BME280;2965;42.640;23.370;2023-02-19T06:19:39;94931.19;;;6.72;100.00
5879;BME280;2965;42.640;23.370;2023-02-19T06:22:05;94929.56;;;6.71;100.00
5879;BME280;2965;42.640;23.370;2023-02-19T06:24:30;94938.25;;;6.80;100.00
5879;BME280;2965;42.640;23.370;2023-02-19T06:26:56;94930.63;;;6.78;100.00
5879;BME280;2965;42.640;23.370;2023-02-19T06:29:21;94936.78;;;6.77;100.00
5879;BME280;2965;42.640;23.370;2023-02-19T06:31:46;94937.81;;;6.85;100.00
5879;BME280;2965;42.640;23.370;2023-02-19T06:34:12;94932.88;;;6.99;100.00
5879;BME280;2965;42.640;23.370;2023-02-19T06:36:37;94936.97;;;7.02;100.00
5879;BME280;2965;42.640;23.370;2023-02-19T06:39:03;94938.59;;;7.03;100.00
5879;BME280;2965;42.640;23.370;2023-02-19T06:41:29;94941.28;;;7.11;100.00
5879;BME280;2965;42.640;23.370;2023-02-19T06:43:56;94934.97;;;7.14;100.00
5879;BME280;2965;42.640;23.370;2023-02-19T06:46:21;94933.13;;;7.32;100.00
5879;BME280;2965;42.640;23.370;2023-02-19T06:48:47;94932.72;;;7.45;99.33
5879;BME280;2965;42.640;23.370;2023-02-19T06:51:15;94938.84;;;7.62;98.28
5879;BME280;2965;42.640;23.370;2023-02-19T06:53:43;94945.59;;;7.80;97.49
5879;BME280;2965;42.640;23.370;2023-02-19T06:58:57;94941.31;;;8.14;95.67
5879;BME280;2965;42.640;23.370;2023-02-19T07:01:24;94946.09;;;8.26;94.35
5879;BME280;2965;42.640;23.370;2023-02-19T07:03:49;94951.09;;;8.46;93.12
5879;BME280;2965;42.640;23.370;2023-02-19T07:06:17;94949.47;;;8.61;92.11
5879;BME280;2965;42.640;23.370;2023-02-19T07:08:42;94952.13;;;8.77;91.11
5879;BME280;2965;42.640;23.370;2023-02-19T07:11:07;94951.78;;;8.89;90.67
5879;BME280;2965;42.640;23.370;2023-02-19T07:13:33;94951.78;;;8.97;90.88
5879;BME280;2965;42.640;23.370;2023-02-19T07:16:00;94946.09;;;9.09;89.54
5879;BME280;2965;42.640;23.370;2023-02-19T07:18:27;94947.22;;;9.23;88.87
5879;BME280;2965;42.640;23.370;2023-02-19T07:20:53;94945.91;;;9.35;86.96
5879;BME280;2965;42.640;23.370;2023-02-19T07:23:19;94938.38;;;9.41;85.27
5879;BME280;2965;42.640;23.370;2023-02-19T07:25:44;94934.97;;;9.48;84.16
5879;BME280;2965;42.640;23.370;2023-02-19T07:28:09;94933.16;;;9.57;83.58
5879;BME280;2965;42.640;23.370;2023-02-19T07:30:35;94922.69;;;9.65;83.63
5879;BME280;2965;42.640;23.370;2023-02-19T07:33:00;94927.22;;;9.79;83.08
5879;BME280;2965;42.640;23.370;2023-02-19T07:35:26;94924.22;;;9.91;81.81
5879;BME280;2965;42.640;23.370;2023-02-19T07:37:51;94911.09;;;10.07;81.22
5879;BME280;2965;42.640;23.370;2023-02-19T07:40:17;94918.38;;;10.20;80.58
5879;BME280;2965;42.640;23.370;2023-02-19T07:42:42;94923.72;;;10.34;79.40
5879;BME280;2965;42.640;23.370;2023-02-19T07:45:08;94913.53;;;10.48;78.81
5879;BME280;2965;42.640;23.370;2023-02-19T07:47:33;94919.50;;;10.56;77.95
5879;BME280;2965;42.640;23.370;2023-02-19T11:21:21;94661.50;;;20.23;42.31
5879;BME280;2965;42.640;23.370;2023-02-19T11:23:48;94648.81;;;20.25;43.40
5879;BME280;2965;42.640;23.370;2023-02-19T11:26:18;94640.44;;;20.16;42.94
5879;BME280;2965;42.640;23.370;2023-02-19T11:28:45;94637.00;;;20.32;42.63
5879;BME280;2965;42.640;23.370;2023-02-19T11:37:28;94627.06;;;21.56;40.63
5879;BME280;2965;42.640;23.370;2023-02-19T11:39:52;94619.09;;;22.05;39.64
5879;BME280;2965;42.640;23.370;2023-02-19T11:42:44;94619.47;;;22.46;38.52
5879;BME280;2965;42.640;23.370;2023-02-19T11:45:32;94610.28;;;22.63;37.25
5879;BME280;2965;42.640;23.370;2023-02-19T11:48:27;94612.38;;;22.02;37.67
5879;BME280;2965;42.640;23.370;2023-02-19T11:51:24;94611.53;;;21.97;38.04
5879;BME280;2965;42.640;23.370;2023-02-19T11:54:20;94602.00;;;22.01;37.50
5879;BME280;2965;42.640;23.370;2023-02-19T11:57:43;94595.75;;;22.17;37.27
5879;BME280;2965;42.640;23.370;2023-02-19T12:00:17;94593.53;;;22.09;37.61
5879;BME280;2965;42.640;23.370;2023-02-19T12:05:48;94579.34;;;22.30;36.63
5879;BME280;2965;42.640;23.370;2023-02-19T12:14:00;94564.94;;;22.58;36.18
5879;BME280;2965;42.640;23.370;2023-02-19T12:16:42;94563.03;;;22.54;35.97
5879;BME280;2965;42.640;23.370;2023-02-19T12:19:39;94554.28;;;23.06;35.44
5879;BME280;2965;42.640;23.370;2023-02-19T12:25:35;94542.00;;;23.05;35.55
5879;BME280;2965;42.640;23.370;2023-02-19T12:27:53;94546.94;;;22.81;35.24
5879;BME280;2965;42.640;23.370;2023-02-19T12:39:22;94515.84;;;23.02;35.14
5879;BME280;2965;42.640;23.370;2023-02-19T12:44:41;94516.50;;;23.24;34.00
5879;BME280;2965;42.640;23.370;2023-02-19T12:47:16;94510.56;;;23.12;35.04
5879;BME280;2965;42.640;23.370;2023-02-19T12:49:48;94509.09;;;23.52;33.43
5879;BME280;2965;42.640;23.370;2023-02-19T12:52:20;94497.84;;;23.45;33.68
5879;BME280;2965;42.640;23.370;2023-02-19T12:54:49;94497.34;;;23.53;33.75
5879;BME280;2965;42.640;23.370;2023-02-19T12:57:28;94473.22;;;23.07;33.94
5879;BME280;2965;42.640;23.370;2023-02-19T13:02:33;94472.53;;;22.79;34.77
5879;BME280;2965;42.640;23.370;2023-02-19T13:05:12;94474.56;;;23.14;34.32
5879;BME280;2965;42.640;23.370;2023-02-19T13:10:35;94451.97;;;23.63;33.51
5879;BME280;2965;42.640;23.370;2023-02-19T13:13:11;94451.91;;;23.32;32.86
5879;BME280;2965;42.640;23.370;2023-02-19T13:15:40;94455.06;;;23.14;33.47
5879;BME280;2965;42.640;23.370;2023-02-19T13:18:15;94452.19;;;23.46;32.57
5879;BME280;2965;42.640;23.370;2023-02-19T13:20:43;94450.41;;;23.92;32.27
5879;BME280;2965;42.640;23.370;2023-02-19T13:23:16;94441.78;;;24.62;31.52
5879;BME280;2965;42.640;23.370;2023-02-19T13:37:25;94418.34;;;23.67;33.04
5879;BME280;2965;42.640;23.370;2023-02-19T13:39:53;94421.03;;;23.82;32.63
5879;BME280;2965;42.640;23.370;2023-02-19T13:42:39;94414.06;;;24.07;32.58
5879;BME280;2965;42.640;23.370;2023-02-19T13:45:05;94403.13;;;23.88;32.21
5879;BME280;2965;42.640;23.370;2023-02-19T13:50:29;94402.59;;;23.76;32.47
5879;BME280;2965;42.640;23.370;2023-02-19T13:52:57;94409.72;;;22.99;32.57
5879;BME280;2965;42.640;23.370;2023-02-19T14:00:59;94407.25;;;22.29;33.64
5879;BME280;2965;42.640;23.370;2023-02-19T14:08:57;94398.00;;;21.62;35.04
5879;BME280;2965;42.640;23.370;2023-02-19T14:14:48;94387.25;;;21.47;35.52
5879;BME280;2965;42.640;23.370;2023-02-19T14:17:43;94391.94;;;21.67;35.16
5879;BME280;2965;42.640;23.370;2023-02-19T14:27:42;94375.75;;;21.41;35.96
5879;BME280;2965;42.640;23.370;2023-02-19T14:30:10;94372.47;;;22.04;36.22
5879;BME280;2965;42.640;23.370;2023-02-19T14:32:38;94365.75;;;22.44;34.71
5879;BME280;2965;42.640;23.370;2023-02-19T14:35:04;94360.63;;;22.89;34.40
5879;BME280;2965;42.640;23.370;2023-02-19T14:37:30;94362.00;;;23.07;34.80
5879;BME280;2965;42.640;23.370;2023-02-19T14:39:56;94370.41;;;22.84;33.99
5879;BME280;2965;42.640;23.370;2023-02-19T14:42:24;94370.09;;;22.55;35.34
5879;BME280;2965;42.640;23.370;2023-02-19T14:44:58;94368.88;;;22.25;36.76
5879;BME280;2965;42.640;23.370;2023-02-19T14:47:27;94361.84;;;22.09;36.46
5879;BME280;2965;42.640;23.370;2023-02-19T14:50:05;94358.19;;;21.78;36.81
5879;BME280;2965;42.640;23.370;2023-02-19T14:52:37;94350.75;;;21.42;37.94
5879;BME280;2965;42.640;23.370;2023-02-19T14:55:05;94353.19;;;21.17;37.31
5879;BME280;2965;42.640;23.370;2023-02-19T14:57:37;94359.59;;;21.21;38.55
5879;BME280;2965;42.640;23.370;2023-02-19T15:00:23;94351.56;;;21.16;40.42
5879;BME280;2965;42.640;23.370;2023-02-19T15:02:51;94338.50;;;20.82;38.32
5879;BME280;2965;42.640;23.370;2023-02-19T15:05:25;94334.28;;;20.86;42.29
5879;BME280;2965;42.640;23.370;2023-02-19T15:07:53;94337.38;;;21.05;41.76
5879;BME280;2965;42.640;23.370;2023-02-19T15:10:20;94333.94;;;21.05;41.83
5879;BME280;2965;42.640;23.370;2023-02-19T15:12:50;94335.59;;;21.16;39.25
5879;BME280;2965;42.640;23.370;2023-02-19T15:15:21;94333.22;;;20.87;38.63
5879;BME280;2965;42.640;23.370;2023-02-19T15:17:47;94340.69;;;20.41;38.83
5879;BME280;2965;42.640;23.370;2023-02-19T15:20:19;94332.47;;;20.43;38.37
5879;BME280;2965;42.640;23.370;2023-02-19T15:22:45;94335.25;;;20.31;42.97
5879;BME280;2965;42.640;23.370;2023-02-19T15:25:16;94332.31;;;20.06;42.47
5879;BME280;2965;42.640;23.370;2023-02-19T15:27:42;94333.41;;;20.10;42.28
5879;BME280;2965;42.640;23.370;2023-02-19T15:30:18;94330.31;;;20.18;44.37
5879;BME280;2965;42.640;23.370;2023-02-19T15:32:51;94328.19;;;19.76;39.60
5879;BME280;2965;42.640;23.370;2023-02-19T15:35:18;94337.06;;;19.87;41.11
5879;BME280;2965;42.640;23.370;2023-02-19T15:37:45;94334.19;;;19.88;44.43
5879;BME280;2965;42.640;23.370;2023-02-19T15:40:12;94334.13;;;19.83;44.86
5879;BME280;2965;42.640;23.370;2023-02-19T15:42:38;94348.94;;;19.79;45.72
5879;BME280;2965;42.640;23.370;2023-02-19T15:45:23;94341.66;;;19.91;45.06
5879;BME280;2965;42.640;23.370;2023-02-19T15:50:26;94356.31;;;19.77;42.18
5879;BME280;2965;42.640;23.370;2023-02-19T15:58:21;94378.19;;;19.51;46.42
5879;BME280;2965;42.640;23.370;2023-02-19T16:00:54;94381.72;;;19.39;45.09
5879;BME280;2965;42.640;23.370;2023-02-19T16:03:22;94391.53;;;19.39;45.52
5879;BME280;2965;42.640;23.370;2023-02-19T16:06:11;94389.28;;;19.31;46.23
5879;BME280;2965;42.640;23.370;2023-02-19T16:08:44;94374.28;;;18.91;47.58
5879;BME280;2965;42.640;23.370;2023-02-19T16:13:48;94395.44;;;18.74;46.30
5879;BME280;2965;42.640;23.370;2023-02-19T16:18:43;94404.44;;;18.50;52.58
5879;BME280;2965;42.640;23.370;2023-02-19T16:21:10;94409.59;;;17.93;45.33
5879;BME280;2965;42.640;23.370;2023-02-19T16:23:43;94405.22;;;17.63;44.86
5879;BME280;2965;42.640;23.370;2023-02-19T16:26:10;94407.03;;;17.51;45.14
5879;BME280;2965;42.640;23.370;2023-02-19T16:28:37;94413.66;;;17.18;46.64
5879;BME280;2965;42.640;23.370;2023-02-19T16:31:08;94407.78;;;16.74;46.68
5879;BME280;2965;42.640;23.370;2023-02-19T16:33:36;94410.28;;;16.32;49.06
5879;BME280;2965;42.640;23.370;2023-02-19T16:36:22;94408.25;;;16.16;49.91
5879;BME280;2965;42.640;23.370;2023-02-19T16:39:11;94415.00;;;16.12;49.96
5879;BME280;2965;42.640;23.370;2023-02-19T16:46:50;94426.16;;;15.39;51.48
5879;BME280;2965;42.640;23.370;2023-02-19T16:49:17;94427.72;;;15.47;51.20
5879;BME280;2965;42.640;23.370;2023-02-19T16:51:43;94438.16;;;15.60;51.01
5879;BME280;2965;42.640;23.370;2023-02-19T16:54:10;94442.78;;;15.39;51.52
5879;BME280;2965;42.640;23.370;2023-02-19T16:56:35;94444.69;;;15.32;53.34
5879;BME280;2965;42.640;23.370;2023-02-19T16:59:01;94448.22;;;15.13;52.07
5879;BME280;2965;42.640;23.370;2023-02-19T17:01:27;94444.69;;;15.01;53.03
5879;BME280;2965;42.640;23.370;2023-02-19T17:03:58;94443.19;;;14.80;53.31
5879;BME280;2965;42.640;23.370;2023-02-19T17:06:25;94445.72;;;14.42;53.44
5879;BME280;2965;42.640;23.370;2023-02-19T17:08:50;94455.50;;;14.34;53.24
5879;BME280;2965;42.640;23.370;2023-02-19T17:11:16;94461.53;;;14.42;53.62
5879;BME280;2965;42.640;23.370;2023-02-19T17:13:43;94461.13;;;14.45;52.83
5879;BME280;2965;42.640;23.370;2023-02-19T17:16:31;94464.34;;;14.47;53.02
5879;BME280;2965;42.640;23.370;2023-02-19T17:19:14;94464.81;;;14.30;52.58
5879;BME280;2965;42.640;23.370;2023-02-19T17:21:40;94463.97;;;14.36;53.13
5879;BME280;2965;42.640;23.370;2023-02-19T17:24:06;94466.59;;;14.36;52.58
5879;BME280;2965;42.640;23.370;2023-02-19T17:26:31;94471.66;;;14.45;52.97
5879;BME280;2965;42.640;23.370;2023-02-19T17:28:58;94483.41;;;14.49;53.45
5879;BME280;2965;42.640;23.370;2023-02-19T17:31:24;94485.00;;;14.50;52.89
5879;BME280;2965;42.640;23.370;2023-02-19T17:33:49;94485.88;;;14.30;53.89
5879;BME280;2965;42.640;23.370;2023-02-19T17:36:24;94489.47;;;14.36;53.90
5879;BME280;2965;42.640;23.370;2023-02-19T17:38:51;94491.53;;;14.27;53.97
5879;BME280;2965;42.640;23.370;2023-02-19T17:41:16;94491.97;;;14.11;54.66
5879;BME280;2965;42.640;23.370;2023-02-19T17:43:42;94492.41;;;13.95;54.48
5879;BME280;2965;42.640;23.370;2023-02-19T17:46:13;94491.59;;;13.87;54.14
5879;BME280;2965;42.640;23.370;2023-02-19T17:48:39;94484.72;;;13.73;54.83
5879;BME280;2965;42.640;23.370;2023-02-19T17:51:05;94487.16;;;13.68;55.39
5879;BME280;2965;42.640;23.370;2023-02-19T17:53:30;94494.03;;;13.69;54.89
5879;BME280;2965;42.640;23.370;2023-02-19T17:55:55;94484.94;;;13.78;54.02
5879;BME280;2965;42.640;23.370;2023-02-19T17:58:21;94498.47;;;13.62;53.84
5879;BME280;2965;42.640;23.370;2023-02-19T18:00:46;94492.00;;;13.71;54.18
5879;BME280;2965;42.640;23.370;2023-02-19T18:03:11;94499.09;;;13.77;53.58
5879;BME280;2965;42.640;23.370;2023-02-19T18:05:37;94503.72;;;13.75;54.64
5879;BME280;2965;42.640;23.370;2023-02-19T18:08:02;94513.66;;;13.73;54.78
5879;BME280;2965;42.640;23.370;2023-02-19T18:10:27;94512.63;;;13.61;55.99
5879;BME280;2965;42.640;23.370;2023-02-19T18:12:55;94516.09;;;13.68;55.73
5879;BME280;2965;42.640;23.370;2023-02-19T18:15:23;94524.56;;;13.63;55.87
5879;BME280;2965;42.640;23.370;2023-02-19T18:17:51;94515.44;;;13.33;58.29
5879;BME280;2965;42.640;23.370;2023-02-19T18:20:19;94525.13;;;13.26;58.96
5879;BME280;2965;42.640;23.370;2023-02-19T18:22:45;94521.03;;;13.17;59.58
5879;BME280;2965;42.640;23.370;2023-02-19T18:25:11;94524.63;;;13.09;60.43
5879;BME280;2965;42.640;23.370;2023-02-19T18:27:36;94537.56;;;12.97;61.57
5879;BME280;2965;42.640;23.370;2023-02-19T18:30:02;94542.00;;;13.03;60.42
5879;BME280;2965;42.640;23.370;2023-02-19T18:32:28;94542.81;;;13.04;59.98
5879;BME280;2965;42.640;23.370;2023-02-19T18:34:56;94543.81;;;13.03;59.72
5879;BME280;2965;42.640;23.370;2023-02-19T18:37:23;94550.91;;;13.09;59.75
5879;BME280;2965;42.640;23.370;2023-02-19T18:39:49;94553.72;;;13.14;60.54
5879;BME280;2965;42.640;23.370;2023-02-19T18:42:15;94564.06;;;13.16;59.15
5879;BME280;2965;42.640;23.370;2023-02-19T18:44:41;94567.91;;;13.20;58.15
5879;BME280;2965;42.640;23.370;2023-02-19T18:47:07;94563.47;;;13.20;57.39
5879;BME280;2965;42.640;23.370;2023-02-19T18:49:33;94561.09;;;13.25;57.92
5879;BME280;2965;42.640;23.370;2023-02-19T18:51:58;94565.06;;;13.21;56.68
5879;BME280;2965;42.640;23.370;2023-02-19T18:54:29;94578.22;;;13.21;56.65
5879;BME280;2965;42.640;23.370;2023-02-19T18:56:55;94565.06;;;13.21;56.29
5879;BME280;2965;42.640;23.370;2023-02-19T18:59:21;94563.13;;;13.36;55.43
5879;BME280;2965;42.640;23.370;2023-02-19T19:01:47;94570.41;;;13.41;55.27
5879;BME280;2965;42.640;23.370;2023-02-19T19:04:12;94577.59;;;13.19;57.10
5879;BME280;2965;42.640;23.370;2023-02-19T19:06:38;94578.84;;;13.23;56.64
5879;BME280;2965;42.640;23.370;2023-02-19T19:09:03;94582.91;;;13.32;55.94
5879;BME280;2965;42.640;23.370;2023-02-19T19:11:30;94584.13;;;13.36;56.61
5879;BME280;2965;42.640;23.370;2023-02-19T19:13:55;94588.09;;;13.12;59.16
5879;BME280;2965;42.640;23.370;2023-02-19T19:16:24;94601.41;;;13.11;58.41
5879;BME280;2965;42.640;23.370;2023-02-19T19:18:50;94607.31;;;12.78;62.37
5879;BME280;2965;42.640;23.370;2023-02-19T19:21:15;94608.66;;;12.33;62.69
5879;BME280;2965;42.640;23.370;2023-02-19T19:23:41;94606.63;;;12.28;63.71
5879;BME280;2965;42.640;23.370;2023-02-19T19:26:07;94610.31;;;12.12;65.58
5879;BME280;2965;42.640;23.370;2023-02-19T19:28:32;94617.00;;;12.15;63.41
5879;BME280;2965;42.640;23.370;2023-02-19T19:30:58;94618.38;;;12.11;65.09
5879;BME280;2965;42.640;23.370;2023-02-19T19:33:23;94617.47;;;12.25;63.80
5879;BME280;2965;42.640;23.370;2023-02-19T19:35:49;94622.81;;;12.38;63.00
5879;BME280;2965;42.640;23.370;2023-02-19T19:38:14;94619.25;;;12.46;62.59
5879;BME280;2965;42.640;23.370;2023-02-19T19:40:40;94624.50;;;12.46;62.00
5879;BME280;2965;42.640;23.370;2023-02-19T19:43:07;94618.81;;;12.43;62.29
5879;BME280;2965;42.640;23.370;2023-02-19T19:45:33;94618.78;;;12.36;62.55
